Flight Track Log - Related Links

Times and Time Zones

All times are in EDT time to prevent confusion due to time zone crossing. See the SKW4664 flight status page for this flight to view local times or setup timezone preferences in your user account.

Time Position Orientation Groundspeed Altitude Reporting Facility
EDT Latitude Longitude Course Direction KTS MPH feet Rate Location/Type
Mon 12:18:24 PM 38.8833 -77.4667 270° West 206 237 2,500  Level Potomac TRACON
Mon 12:19:58 PM 38.8033 -77.5628 223° Southwest 262 302 6,100 2,400 Climbing Washington Center
Mon 12:20:00 PM 39.1176 -77.8125 303° West  Level Estimated
Mon 12:20:59 PM 38.7936 -77.6558 262° West 259 298 8,700  Level Washington Center
Mon 12:21:00 PM 39.1741 -77.9304 277° West  Level Estimated
Mon 12:22:00 PM 39.2305 -78.0485 270° West  Level Estimated
Mon 12:22:00 PM 38.8272 -77.7633 292° West 265 305 11,400  Level Washington Center
Mon 12:22:58 PM 38.8586 -77.8575 293° West 298 343 13,400 2,218 Climbing Washington Center
Mon 12:23:00 PM 39.2868 -78.1667 270° West  Level Estimated
Mon 12:23:59 PM 38.8917 -77.9839 289° West 322 371 15,800  Level Washington Center
Mon 12:25:00 PM 38.9247 -78.0997 290° West 343 395 17,800 2,017 Climbing Washington Center
Mon 12:25:58 PM 38.9597 -78.2211 290° West 355 409 19,800 1,866 Climbing Washington Center
Mon 12:26:59 PM 38.9692 -78.3522 275° West 355 409 21,500 1,736 Climbing Washington Center
Mon 12:27:59 PM 38.9786 -78.4889 275° West 376 433 23,300 1,736 Climbing Washington Center
Mon 12:29:00 PM 38.9856 -78.6253 274° West 386 444 25,000 1,537 Climbing Washington Center
Mon 12:30:00 PM 38.9967 -78.7647 276° West 393 452 26,400 1,385 Climbing Washington Center
Mon 12:30:57 PM 39.0050 -78.9147 274° West 403 464 27,700 1,322 Climbing Washington Center
Mon 12:31:58 PM 39.0136 -79.0592 274° West 409 471 29,000 1,230 Climbing Washington Center
Mon 12:32:59 PM 39.0217 -79.2094 274° West 415 478 30,200 1,131 Climbing Washington Center
Mon 12:34:00 PM 39.0339 -79.3569 276° West 420 483 31,300 1,059 Climbing Washington Center
Mon 12:34:58 PM 39.0414 -79.5097 274° West 426 490 32,300 966 Climbing Washington Center
Mon 12:35:58 PM 39.0550 -79.6628 277° West 426 490 33,200 800 Climbing Washington Center
Mon 12:36:58 PM 39.0622 -79.8156 274° West 431 496 33,900 358 Climbing Washington Center
Mon 12:38:12 PM 39.0708 -79.9953 274° West 447 514 34,000 132 Climbing Indianapolis Center
Mon 12:39:14 PM 39.0808 -80.1594 275° West 458 527 34,200 585 Climbing Indianapolis Center
Mon 12:40:15 PM 39.0911 -80.3247 275° West 463 533 35,200 878 Climbing Indianapolis Center
Mon 12:41:17 PM 39.1025 -80.5194 274° West 458 527 36,000 387 Climbing Indianapolis Center
Mon 12:42:19 PM 39.1281 -80.6789 282° West 462 532 36,000  Level Indianapolis Center
Mon 12:43:21 PM 39.1861 -80.8178 298° West 446 513 36,000  Level Indianapolis Center
Mon 12:44:23 PM 39.2478 -80.9564 300° West 447 514 36,000  Level Indianapolis Center
Mon 12:45:25 PM 39.3086 -81.0944 300° West 446 513 36,000  Level Indianapolis Center
Mon 12:46:26 PM 39.3689 -81.2331 299° West 444 511 36,000  Level Indianapolis Center
Mon 12:47:28 PM 39.4408 -81.3978 300° West 442 509 36,000  Level Indianapolis Center
Mon 12:48:30 PM 39.5000 -81.5358 299° West 441 507 36,000  Level Indianapolis Center
Mon 12:49:32 PM 39.5586 -81.6733 299° West 439 505 36,000  Level Indianapolis Center
Mon 12:50:34 PM 39.6172 -81.8122 299° West 440 506 36,000  Level Indianapolis Center
Mon 12:51:36 PM 39.6761 -81.9497 299° West 437 503 36,000  Level Indianapolis Center
Mon 12:52:38 PM 39.7364 -82.0894 299° West 436 502 36,000  Level Indianapolis Center
Mon 12:53:39 PM 39.7933 -82.2264 298° West 433 498 36,000  Level Indianapolis Center
Mon 12:54:41 PM 39.8625 -82.3900 299° West 432 497 36,000  Level Indianapolis Center
Mon 12:55:43 PM 39.9200 -82.5283 298° West 436 502 36,000  Level Indianapolis Center
Mon 12:56:45 PM 39.9764 -82.6650 298° West 431 496 36,000  Level Indianapolis Center
Mon 12:57:47 PM 40.0322 -82.8003 298° West 429 494 36,000  Level Indianapolis Center
Mon 12:58:49 PM 40.0889 -82.9358 299° West 428 493 36,000  Level Indianapolis Center
Mon 12:59:51 PM 40.1453 -83.0717 299° West 429 494 36,000  Level Indianapolis Center
Mon 01:00:53 PM 40.2111 -83.2364 298° West 430 495 36,000  Level Indianapolis Center
Mon 01:01:54 PM 40.2675 -83.3711 299° West 428 493 36,000  Level Indianapolis Center
Mon 01:02:56 PM 40.3217 -83.5078 298° West 426 490 36,000  Level Indianapolis Center
Mon 01:03:58 PM 40.3769 -83.6439 298° West 427 491 36,000  Level Indianapolis Center
Mon 01:05:00 PM 40.4314 -83.7806 298° West 426 490 36,000  Level Indianapolis Center
Mon 01:06:02 PM 40.4969 -83.9442 298° West 425 489 36,000  Level Indianapolis Center
Mon 01:07:04 PM 40.5508 -84.0781 298° West 420 483 36,000  Level Indianapolis Center
Mon 01:08:06 PM 40.6028 -84.2136 297° West 417 480 36,000  Level Indianapolis Center
Mon 01:09:08 PM 40.6564 -84.3492 298° West 417 480 36,000  Level Indianapolis Center
Mon 01:10:10 PM 40.7092 -84.4839 297° West 417 480 36,000  Level Indianapolis Center
Mon 01:11:08 PM 40.7667 -84.6311 297° West 413 475 36,000  Level Chicago Center
Mon 01:12:10 PM 40.8181 -84.7664 297° West 413 475 36,000  Level Chicago Center
Mon 01:13:12 PM 40.8739 -84.8992 299° West 413 475 36,000  Level Chicago Center
Mon 01:14:14 PM 40.9808 -84.9594 337° Northwest 425 489 36,000  Level Chicago Center
Mon 01:15:16 PM 41.1006 -84.9578 North 427 491 36,000  Level Chicago Center
Mon 01:16:19 PM 41.2425 -84.9711 356° North 429 494 36,000  Level Chicago Center
Mon 01:17:21 PM 41.3397 -85.0481 329° Northwest 411 473 36,000  Level Chicago Center
Mon 01:18:23 PM 41.4114 -85.1675 309° West 412 474 36,000  Level Chicago Center
Mon 01:19:25 PM 41.4825 -85.2869 308° West 410 472 36,000  Level Chicago Center
Mon 01:20:27 PM 41.5531 -85.4067 308° West 408 470 36,000  Level Chicago Center
Mon 01:21:29 PM 41.6261 -85.5267 309° West 411 473 36,000  Level Chicago Center
Mon 01:22:31 PM 41.7022 -85.6553 308° West 413 475 36,000  Level Chicago Center
Mon 01:23:33 PM 41.7728 -85.7742 309° West 410 472 36,000  Level Chicago Center
Mon 01:24:35 PM 41.8417 -85.8922 308° West 404 465 36,000  Level Chicago Center
Mon 01:25:37 PM 41.9253 -86.0347 308° West 406 467 36,000  Level Chicago Center
Mon 01:26:40 PM 41.9950 -86.1533 308° West 405 466 36,000  Level Chicago Center
Mon 01:27:42 PM 42.0625 -86.2714 308° West 398 458 36,000  Level Chicago Center
Mon 01:28:44 PM 42.1303 -86.3897 308° West 399 459 36,000  Level Chicago Center
Mon 01:29:46 PM 42.1983 -86.5067 308° West 396 456 36,000  Level Chicago Center
Mon 01:30:48 PM 42.2667 -86.6256 308° West 400 460 36,000  Level Chicago Center
Mon 01:31:50 PM 42.3408 -86.7536 308° West 407 468 36,000  Level Chicago Center
Mon 01:32:52 PM 42.4217 -86.8936 308° West 400 460 36,000  Level Chicago Center
Mon 01:33:54 PM 42.4878 -87.0119 307° West 397 457 36,000  Level Chicago Center
Mon 01:34:56 PM 42.5517 -87.1253 307° West 386 444 36,000  Level Chicago Center
Mon 01:35:58 PM 42.6258 -87.2586 307° West 396 456 36,000  Level Chicago Center
Mon 01:37:01 PM 42.6922 -87.3775 307° West 394 453 36,000  Level Chicago Center
Mon 01:38:03 PM 42.7550 -87.4892 307° West 393 452 36,000  Level Chicago Center
Mon 01:39:05 PM 42.8208 -87.6061 308° West 391 450 36,000  Level Chicago Center
Mon 01:40:07 PM 42.8986 -87.7486 307° West 389 448 36,000  Level Chicago Center
Mon 01:41:09 PM 42.9631 -87.8639 307° West 384 442 36,000  Level Chicago Center
Mon 01:42:11 PM 43.0261 -87.9794 307° West 380 437 36,000  Level Chicago Center
Mon 01:43:13 PM 43.0897 -88.0942 307° West 377 434 36,000  Level Chicago Center
Mon 01:44:15 PM 43.1506 -88.2078 306° West 369 425 36,000  Level Chicago Center
Mon 01:45:17 PM 43.2128 -88.3225 307° West 372 428 36,000  Level Chicago Center
Mon 01:46:19 PM 43.2864 -88.4600 306° West 369 425 36,000  Level Chicago Center
Mon 01:47:21 PM 43.3486 -88.5800 306° West 375 432 36,000  Level Chicago Center
Mon 01:48:24 PM 43.4147 -88.6975 308° West 380 437 36,000  Level Chicago Center
Mon 01:49:26 PM 43.4783 -88.8147 307° West 378 435 36,000  Level Chicago Center
Mon 01:50:28 PM 43.5411 -88.9322 306° West 380 437 36,000  Level Chicago Center
Mon 01:51:30 PM 43.6028 -89.0497 306° West 378 435 36,000  Level Chicago Center
Mon 01:52:32 PM 43.6650 -89.1667 306° West 379 436 36,000  Level Chicago Center
Mon 01:53:34 PM 43.7286 -89.2858 306° West 382 440 36,000  Level Chicago Center
Mon 01:54:36 PM 43.8008 -89.4272 305° West 379 436 36,000 -48 Level Chicago Center
Mon 01:55:38 PM 43.8647 -89.5483 306° West 387 445 35,900 -387 Descending Chicago Center
Mon 01:56:40 PM 43.9264 -89.6667 306° West 381 438 35,200 -726 Descending Chicago Center
Mon 01:57:42 PM 43.9872 -89.7853 306° West 379 436 34,400 -581 Descending Chicago Center
Mon 01:58:44 PM 44.0494 -89.9064 306° West 386 444 34,000 -186 Descending Chicago Center
Mon 01:59:51 PM 44.1283 -90.0553 306° West 399 459 34,000  Level Minneapolis Center
Mon 02:00:53 PM 44.1906 -90.1831 304° West 400 460 34,000  Level Minneapolis Center
Mon 02:01:55 PM 44.2467 -90.3169 300° West 402 463 34,000  Level Minneapolis Center
Mon 02:02:57 PM 44.3036 -90.4511 301° West 401 461 34,000  Level Minneapolis Center
Mon 02:03:59 PM 44.3611 -90.5825 302° West 399 459 34,000  Level Minneapolis Center
Mon 02:05:01 PM 44.4264 -90.7431 300° West 400 460 34,000  Level Minneapolis Center
Mon 02:06:03 PM 44.4833 -90.8742 301° West 396 456 34,000  Level Minneapolis Center
Mon 02:07:05 PM 44.5303 -90.9919 299° West 394 453 34,000 -774 Level Minneapolis Center
Mon 02:08:07 PM 44.5956 -91.1508 300° West 393 452 32,400 -2,049 Descending Minneapolis Center
Mon 02:09:08 PM 44.6500 -91.2861 300° West 397 457 29,800 -2,537 Descending Minneapolis Center
Mon 02:10:10 PM 44.7067 -91.4225 300° West 403 464 27,200 -2,516 Descending Minneapolis Center
Mon 02:11:12 PM 44.7606 -91.5572 299° West 400 460 24,600 -2,565 Descending Minneapolis Center
Mon 02:12:14 PM 44.8153 -91.6953 299° West 402 463 21,900 -2,565 Descending Minneapolis Center
Mon 02:13:16 PM 44.8717 -91.8344 300° West 409 471 19,300 -2,806 Descending Minneapolis Center
Mon 02:14:18 PM 44.9325 -91.9897 299° West 380 437 16,100 -2,710 Descending Minneapolis Center
Mon 02:15:20 PM 44.9819 -92.1133 300° West 364 419 13,700 -2,323 Descending Minneapolis Center
Mon 02:16:22 PM 45.0319 -92.2408 299° West 348 400 11,300 -1,306 Descending Minneapolis Center
Mon 02:17:24 PM 45.0381 -92.3586 274° West 341 392 11,000 -145 Descending Minneapolis Center
Mon 02:18:26 PM 45.0183 -92.4878 258° West 336 387 11,000  Level Minneapolis Center
Mon 02:19:28 PM 44.9942 -92.6408 257° West 335 386 11,000  Level Minneapolis Center
Mon 02:20:30 PM 44.9728 -92.7692 257° West 337 388 11,000  Level Minneapolis Center
Mon 02:21:32 PM 44.9525 -92.8986 258° West 339 390 11,000 -387 Level Minneapolis Center
Mon 02:22:34 PM 44.9344 -93.0086 257° West 292 336 10,200 -1,161 Descending Minneapolis Center
Mon 02:23:36 PM 44.9447 -93.1014 279° West 266 306 8,600 -1,210 Descending Minneapolis Center
Mon 02:24:38 PM 44.9989 -93.2017 307° West 271 312 7,700 -1,258 Descending Minneapolis Center
Mon 02:25:40 PM 45.0450 -93.2847 308° West 271 312 6,000 -1,355 Descending Minneapolis Center
Mon 02:26:42 PM 45.0850 -93.3686 304° West 261 300 4,900 -968 Descending Minneapolis Center
Mon 02:27:44 PM 45.0464 -93.3911 202° Southwest 188 216 4,000 -823 Descending Minneapolis Center
Mon 02:28:46 PM 45.0011 -93.3494 147° Southeast 194 223 3,200 -629 Descending Minneapolis Center
Mon 02:29:48 PM 44.9583 -93.3144 150° Southeast 180 207 2,700 -629 Descending Minneapolis Center
Mon 02:30:50 PM 44.9172 -93.2772 147° Southeast 144 166 1,900 -774 Descending Minneapolis Center
Mon 02:31:52 PM 44.8975 -93.2292 120° Southeast 140 161 1,100 -774 Descending Minneapolis Center

Login

Don't have an account? Register now (free) for customized features, flight alerts, and more!